TimeMDT,TemperatureF,Dew PointF,Humidity,Sea Level PressureIn,VisibilityMPH,Wind Direction,Wind SpeedMPH,Gust SpeedMPH,PrecipitationIn,Events,Conditions,WindDirDegrees,DateUTC
12:55 AM,39.9,24.1,53,30.15,10.0,NNW,5.8,-,N/A,,Partly Cloudy,340,2013-03-30 06:55:00
1:55 AM,37.0,24.1,59,30.17,10.0,Calm,Calm,-,N/A,,Scattered Clouds,0,2013-03-30 07:55:00
2:55 AM,36.0,24.1,62,30.16,10.0,Calm,Calm,-,N/A,,Clear,0,2013-03-30 08:55:00
3:55 AM,33.1,23.0,66,30.18,10.0,NNW,3.5,-,N/A,,Mostly Cloudy,330,2013-03-30 09:55:00
4:55 AM,34.0,24.1,67,30.17,10.0,NW,4.6,-,N/A,,Overcast,320,2013-03-30 10:55:00
5:55 AM,30.9,21.9,69,30.18,10.0,Calm,Calm,-,N/A,,Mostly Cloudy,0,2013-03-30 11:55:00
6:55 AM,33.1,24.1,70,30.19,10.0,Calm,Calm,-,N/A,,Mostly Cloudy,0,2013-03-30 12:55:00
7:55 AM,34.0,24.1,67,30.22,10.0,Calm,Calm,-,N/A,,Overcast,0,2013-03-30 13:55:00
8:55 AM,37.9,26.1,62,30.24,10.0,Calm,Calm,-,N/A,,Clear,0,2013-03-30 14:55:00
9:55 AM,44.1,27.0,51,30.22,10.0,Calm,Calm,-,N/A,,Clear,0,2013-03-30 15:55:00
10:55 AM,46.9,27.0,46,30.22,10.0,Calm,Calm,-,N/A,,Clear,0,2013-03-30 16:55:00
11:55 AM,52.0,24.1,34,30.19,10.0,Variable,3.5,-,N/A,,Clear,0,2013-03-30 17:55:00
12:55 PM,53.1,23.0,31,30.18,10.0,Calm,Calm,-,N/A,,Clear,0,2013-03-30 18:55:00
1:55 PM,55.9,21.9,27,30.17,10.0,Calm,Calm,-,N/A,,Clear,0,2013-03-30 19:55:00
2:55 PM,57.9,19.9,23,30.14,10.0,Variable,4.6,-,N/A,,Clear,0,2013-03-30 20:55:00
3:55 PM,61.0,19.0,20,30.12,10.0,East,3.5,-,N/A,,Clear,80,2013-03-30 21:55:00
4:55 PM,60.1,18.0,20,30.09,10.0,Calm,Calm,-,N/A,,Clear,0,2013-03-30 22:55:00
5:55 PM,62.1,19.0,19,30.08,10.0,Calm,Calm,-,N/A,,Clear,0,2013-03-30 23:55:00
6:55 PM,61.0,19.9,21,30.06,10.0,East,3.5,-,N/A,,Clear,80,2013-03-31 00:55:00
7:55 PM,50.0,19.9,31,30.09,10.0,WNW,4.6,-,N/A,,Clear,300,2013-03-31 01:55:00
8:55 PM,45.0,19.9,37,30.10,10.0,NNW,8.1,-,N/A,,Clear,330,2013-03-31 02:55:00
9:55 PM,43.0,19.9,40,30.11,10.0,Calm,Calm,-,N/A,,Clear,0,2013-03-31 03:55:00
10:55 PM,42.1,19.0,40,30.11,10.0,SSE,3.5,-,N/A,,Clear,160,2013-03-31 04:55:00
11:55 PM,39.9,19.0,43,30.11,10.0,SE,3.5,-,N/A,,Clear,140,2013-03-31 05:55:00